createdAt,value
2022-12-24T00:00:49.977Z,106.2
2022-12-24T00:01:59.231Z,106.68
2022-12-24T00:03:08.330Z,105.95
2022-12-24T00:04:17.600Z,106.44
2022-12-24T00:05:26.701Z,106.2
2022-12-24T00:06:35.856Z,106.68
2022-12-24T00:07:45.066Z,107.17
2022-12-24T00:10:03.483Z,108.39
2022-12-24T00:11:12.530Z,106.68
2022-12-24T00:12:21.707Z,104.98
2022-12-24T00:13:30.882Z,107.91
2022-12-24T00:14:40.073Z,105.71
2022-12-24T00:15:48.247Z,107.91
2022-12-24T00:16:57.418Z,108.88
2022-12-24T00:18:06.600Z,104.98
2022-12-24T00:19:15.782Z,106.44
2022-12-24T00:20:24.941Z,105.95
2022-12-24T00:21:34.166Z,106.93
2022-12-24T00:22:43.293Z,104.49
2022-12-24T00:23:52.460Z,105.95
2022-12-24T00:25:00.702Z,107.42
2022-12-24T00:26:08.833Z,105.71
2022-12-24T00:27:18.086Z,106.44
2022-12-24T00:28:27.190Z,108.64
2022-12-24T00:29:36.360Z,106.44
2022-12-24T00:30:44.556Z,106.44
2022-12-24T00:31:52.732Z,106.44
2022-12-24T00:33:01.914Z,108.64
2022-12-24T00:34:11.077Z,108.15
2022-12-24T00:35:20.252Z,106.44
2022-12-24T00:36:29.419Z,106.93
2022-12-24T00:37:38.595Z,106.44
2022-12-24T00:38:47.772Z,109.37
2022-12-24T00:39:56.976Z,106.68
2022-12-24T00:41:06.428Z,106.44
2022-12-24T00:42:15.303Z,106.44
2022-12-24T00:43:24.470Z,108.39
2022-12-24T00:44:33.630Z,110.59
2022-12-24T00:45:42.880Z,106.93
2022-12-24T00:46:51.005Z,106.93
2022-12-24T00:48:00.174Z,105.71
2022-12-24T00:49:09.352Z,106.68
2022-12-24T00:50:18.581Z,105.71
2022-12-24T00:51:27.791Z,104.49
2022-12-24T00:52:36.858Z,104.98
2022-12-24T00:53:46.038Z,101.31
2022-12-24T00:54:54.311Z,101.8
2022-12-24T00:56:02.508Z,101.8
2022-12-24T00:57:10.630Z,99.85
2022-12-24T00:58:18.797Z,98.87
2022-12-24T00:59:27.996Z,101.56
2022-12-24T01:00:37.148Z,95.45
2022-12-24T01:01:46.417Z,98.38
2022-12-24T01:02:55.485Z,96.67
2022-12-24T01:04:04.660Z,97.9
2022-12-24T01:05:13.858Z,96.43
2022-12-24T01:06:23.039Z,99.6
2022-12-24T01:07:32.185Z,97.16
2022-12-24T01:08:41.359Z,97.9
2022-12-24T01:09:50.524Z,99.12
2022-12-24T01:10:59.696Z,96.43
2022-12-24T01:12:08.878Z,94.72
2022-12-24T01:13:17.049Z,96.19
2022-12-24T01:14:26.234Z,94.72
2022-12-24T01:15:35.417Z,94.23
2022-12-24T01:16:44.578Z,93.26
2022-12-24T01:17:53.750Z,91.55
2022-12-24T01:19:02.912Z,95.21
2022-12-24T01:20:12.106Z,93.5
2022-12-24T01:22:30.439Z,95.45
2022-12-24T01:23:39.612Z,98.14
2022-12-24T01:24:48.784Z,98.87
2022-12-24T01:27:07.136Z,98.87
2022-12-24T01:28:15.317Z,100.34
2022-12-24T01:29:24.522Z,100.58
2022-12-24T01:30:33.663Z,99.36
2022-12-24T01:31:42.903Z,100.83
2022-12-24T01:32:52.095Z,101.07
2022-12-24T01:34:01.206Z,99.85
2022-12-24T01:35:10.352Z,99.6
2022-12-24T01:36:19.582Z,102.53
2022-12-24T01:37:28.743Z,98.87
2022-12-24T01:38:37.940Z,101.8
2022-12-24T01:40:56.226Z,102.29
2022-12-24T01:42:04.410Z,100.34
2022-12-24T01:43:12.594Z,100.58
2022-12-24T01:44:21.804Z,100.58
2022-12-24T01:45:30.933Z,101.8
2022-12-24T01:46:40.107Z,101.31
2022-12-24T01:47:49.322Z,102.29
2022-12-24T01:48:58.460Z,104.24
2022-12-24T01:50:07.629Z,102.53
2022-12-24T01:51:16.814Z,102.53
2022-12-24T01:52:26.037Z,102.78
2022-12-24T01:53:35.185Z,105.71
2022-12-24T01:54:43.418Z,102.53
2022-12-24T01:55:51.559Z,103.51
2022-12-24T01:57:00.718Z,102.53
2022-12-24T01:58:09.943Z,101.8
2022-12-24T01:59:19.064Z,101.07
2022-12-24T02:00:28.260Z,101.31
2022-12-24T02:01:37.390Z,101.56
2022-12-24T02:02:46.574Z,102.78
2022-12-24T02:03:55.747Z,101.8
2022-12-24T02:05:04.932Z,102.05
2022-12-24T02:06:14.093Z,102.05
2022-12-24T02:07:23.271Z,98.87
2022-12-24T02:08:32.439Z,100.58
2022-12-24T02:09:41.603Z,101.8
2022-12-24T02:10:49.822Z,101.56
2022-12-24T02:11:58.971Z,103.02
2022-12-24T02:13:08.184Z,101.31
2022-12-24T02:14:17.371Z,100.83
2022-12-24T02:15:26.593Z,101.56
2022-12-24T02:16:35.645Z,100.83
2022-12-24T02:17:44.839Z,99.6
2022-12-24T02:18:53.021Z,101.56
2022-12-24T02:20:01.224Z,101.8
2022-12-24T02:21:10.418Z,101.56
2022-12-24T02:22:18.587Z,103.02
2022-12-24T02:23:26.779Z,100.58
2022-12-24T02:24:34.967Z,102.53
2022-12-24T02:25:44.147Z,102.53
2022-12-24T02:26:53.305Z,105.71
2022-12-24T02:28:02.477Z,100.34
2022-12-24T02:29:11.657Z,99.85
2022-12-24T02:30:20.907Z,99.12
2022-12-24T02:31:30.003Z,100.34
2022-12-24T02:32:39.346Z,99.12
2022-12-24T02:33:48.345Z,100.09
2022-12-24T02:34:57.551Z,99.6
2022-12-24T02:36:06.766Z,101.07
2022-12-24T02:38:25.026Z,101.56
2022-12-24T02:39:33.224Z,100.83
2022-12-24T02:40:42.391Z,101.31
2022-12-24T02:41:51.574Z,99.36
2022-12-24T02:43:00.743Z,101.31
2022-12-24T02:44:09.907Z,103.51
2022-12-24T02:45:19.141Z,101.31
2022-12-24T02:46:28.278Z,100.34
2022-12-24T02:47:37.465Z,103.27
2022-12-24T02:48:45.622Z,100.83
2022-12-24T02:51:02.992Z,101.56
2022-12-24T02:52:12.143Z,100.83
2022-12-24T02:53:21.335Z,99.6
2022-12-24T02:54:29.538Z,98.87
2022-12-24T02:55:37.726Z,102.05
2022-12-24T02:56:46.881Z,101.07
2022-12-24T02:57:56.073Z,99.6
2022-12-24T02:59:05.219Z,102.05
2022-12-24T03:00:14.449Z,99.36
2022-12-24T03:01:23.586Z,102.78
2022-12-24T03:02:32.797Z,101.31
2022-12-24T03:03:41.928Z,100.83
2022-12-24T03:04:51.084Z,101.8
2022-12-24T03:06:00.264Z,101.56
2022-12-24T03:07:09.492Z,99.6
2022-12-24T03:08:18.653Z,103.02
2022-12-24T03:09:27.787Z,103.02
2022-12-24T03:10:35.973Z,105.71
2022-12-24T03:11:45.148Z,105.46
2022-12-24T03:12:54.315Z,106.44
2022-12-24T03:14:03.506Z,107.17
2022-12-24T03:15:12.655Z,109.13
2022-12-24T03:16:21.831Z,106.68
2022-12-24T03:17:31.007Z,106.93
2022-12-24T03:18:40.188Z,107.42
2022-12-24T03:19:48.377Z,106.68
2022-12-24T03:20:56.560Z,104.49
2022-12-24T03:22:04.797Z,105.46
2022-12-24T03:23:12.932Z,104.49
2022-12-24T03:24:22.115Z,102.29
2022-12-24T03:25:31.294Z,99.6
2022-12-24T03:26:40.522Z,100.34
2022-12-24T03:27:49.645Z,96.19
2022-12-24T03:28:58.802Z,91.06
2022-12-24T03:30:07.970Z,88.62
2022-12-24T03:31:17.159Z,88.13
2022-12-24T03:32:26.315Z,87.89
2022-12-24T03:33:35.494Z,84.71
2022-12-24T03:34:44.674Z,87.64
2022-12-24T03:35:53.839Z,86.91
2022-12-24T03:37:03.007Z,86.18
2022-12-24T03:38:11.200Z,86.91
2022-12-24T03:39:20.373Z,86.91
2022-12-24T03:40:29.540Z,86.91
2022-12-24T03:41:38.725Z,89.84
2022-12-24T03:42:47.891Z,89.11
2022-12-24T03:43:57.096Z,89.35
2022-12-24T03:45:06.236Z,89.35
2022-12-24T03:46:14.437Z,89.35
2022-12-24T03:47:22.637Z,90.08
2022-12-24T03:48:30.814Z,92.28
2022-12-24T03:50:48.175Z,90.57
2022-12-24T03:51:57.362Z,90.82
2022-12-24T03:53:06.508Z,91.3
2022-12-24T03:54:15.698Z,92.28
2022-12-24T03:55:24.852Z,89.35
2022-12-24T03:56:34.036Z,90.57
2022-12-24T03:57:43.209Z,90.82
2022-12-24T03:58:52.381Z,91.3
2022-12-24T04:00:01.562Z,91.79
2022-12-24T04:01:10.738Z,91.55
2022-12-24T04:02:19.929Z,90.57
2022-12-24T04:03:29.075Z,92.28
2022-12-24T04:04:37.272Z,92.52
2022-12-24T04:06:55.613Z,93.5
2022-12-24T04:08:04.796Z,93.01
2022-12-24T04:09:13.957Z,94.72
2022-12-24T04:10:23.135Z,94.72
2022-12-24T04:11:32.297Z,96.19
2022-12-24T04:12:41.467Z,98.14
2022-12-24T04:13:50.655Z,97.41
2022-12-24T04:14:59.890Z,101.31
2022-12-24T04:16:08.987Z,98.63
2022-12-24T04:17:18.170Z,100.34
2022-12-24T04:18:27.336Z,102.29
2022-12-24T04:19:35.520Z,100.34
2022-12-24T04:20:44.718Z,101.07
2022-12-24T04:21:53.873Z,102.05
2022-12-24T04:23:03.044Z,105.71
2022-12-24T04:24:12.209Z,107.42
2022-12-24T04:25:21.440Z,112.3
2022-12-24T04:26:30.558Z,111.08
2022-12-24T04:27:39.726Z,109.61
2022-12-24T04:28:48.893Z,108.15
2022-12-24T04:29:58.072Z,107.66
2022-12-24T04:31:07.260Z,105.22
2022-12-24T04:32:16.424Z,103.27
2022-12-24T04:33:25.593Z,102.53
2022-12-24T04:34:33.773Z,100.09
2022-12-24T04:35:42.951Z,101.07
2022-12-24T04:36:52.220Z,99.6
2022-12-24T04:38:00.327Z,100.83
2022-12-24T04:39:08.512Z,101.8
2022-12-24T04:40:16.697Z,101.56
2022-12-24T04:41:24.904Z,103.02
2022-12-24T04:42:34.065Z,101.07
2022-12-24T04:43:43.228Z,101.31
2022-12-24T04:44:52.406Z,102.05
2022-12-24T04:46:01.577Z,100.34
2022-12-24T04:47:10.755Z,101.56
2022-12-24T04:49:29.095Z,102.53
2022-12-24T04:50:38.264Z,106.2
2022-12-24T04:51:47.437Z,100.83
2022-12-24T04:52:56.607Z,100.34
2022-12-24T04:54:05.794Z,101.56
2022-12-24T04:55:14.956Z,104.24
2022-12-24T04:56:23.157Z,101.31
2022-12-24T04:57:32.324Z,100.34
2022-12-24T04:58:41.493Z,100.34
2022-12-24T04:59:50.679Z,99.12
2022-12-24T05:00:59.856Z,99.6
2022-12-24T05:02:09.013Z,98.87
2022-12-24T05:03:18.196Z,98.38
2022-12-24T05:04:27.356Z,99.36
2022-12-24T05:05:36.529Z,97.9
2022-12-24T05:06:45.705Z,96.19
2022-12-24T05:07:54.870Z,99.36
2022-12-24T05:09:04.046Z,94.72
2022-12-24T05:10:13.227Z,96.19
2022-12-24T05:11:21.420Z,94.23
2022-12-24T05:12:30.574Z,94.72
2022-12-24T05:13:39.758Z,95.45
2022-12-24T05:14:48.934Z,94.48
2022-12-24T05:15:58.105Z,93.99
2022-12-24T05:17:07.271Z,90.33
2022-12-24T05:18:16.444Z,89.35
2022-12-24T05:19:25.623Z,88.37
2022-12-24T05:20:34.789Z,89.35
2022-12-24T05:21:43.984Z,88.37
2022-12-24T05:22:53.132Z,91.79
2022-12-24T05:24:02.297Z,88.13
2022-12-24T05:25:11.490Z,87.64
2022-12-24T05:26:19.667Z,87.89
2022-12-24T05:27:28.848Z,88.13
2022-12-24T05:28:38.015Z,88.62
2022-12-24T05:29:47.197Z,88.13
2022-12-24T05:30:56.362Z,88.62
2022-12-24T05:32:05.575Z,92.52
2022-12-24T05:33:14.701Z,87.89
2022-12-24T05:34:23.928Z,89.84
2022-12-24T05:35:33.069Z,88.86
2022-12-24T05:36:42.236Z,90.82
2022-12-24T05:37:51.410Z,89.35
2022-12-24T05:39:00.612Z,90.08
2022-12-24T05:40:09.763Z,87.89
2022-12-24T05:41:17.930Z,88.37
2022-12-24T05:42:27.097Z,88.62
2022-12-24T05:43:36.268Z,89.84
2022-12-24T05:44:45.491Z,90.33
2022-12-24T05:45:54.619Z,89.35
2022-12-24T05:47:03.858Z,89.35
2022-12-24T05:48:12.966Z,91.06
2022-12-24T05:49:22.164Z,92.04
2022-12-24T05:50:31.357Z,89.84
2022-12-24T05:51:40.482Z,88.62
2022-12-24T05:52:49.658Z,93.75
2022-12-24T05:53:58.832Z,89.11
2022-12-24T05:55:08.000Z,91.06
2022-12-24T05:56:16.203Z,92.28
2022-12-24T05:57:25.360Z,93.75
2022-12-24T05:58:34.533Z,93.5
2022-12-24T05:59:43.723Z,94.23
2022-12-24T06:00:52.912Z,92.52
2022-12-24T06:02:02.075Z,96.19
2022-12-24T06:03:11.233Z,96.19
2022-12-24T06:04:20.406Z,96.92
2022-12-24T06:05:29.575Z,99.36
2022-12-24T06:06:38.739Z,97.16
2022-12-24T06:07:47.915Z,98.14
2022-12-24T06:08:57.097Z,97.41
2022-12-24T06:10:06.291Z,98.87
2022-12-24T06:11:15.440Z,97.9
2022-12-24T06:12:23.623Z,100.34
2022-12-24T06:13:32.804Z,102.05
2022-12-24T06:14:42.021Z,99.6
2022-12-24T06:15:50.159Z,99.85
2022-12-24T06:16:59.332Z,99.12
2022-12-24T06:18:07.523Z,99.36
2022-12-24T06:19:16.716Z,100.58
2022-12-24T06:20:24.892Z,101.8
2022-12-24T06:21:33.102Z,101.07
2022-12-24T06:22:41.272Z,99.36
2022-12-24T06:23:50.446Z,101.56
2022-12-24T06:24:59.611Z,100.58
2022-12-24T06:26:08.785Z,100.09
2022-12-24T06:29:36.330Z,98.63
2022-12-24T06:30:45.480Z,100.34
2022-12-24T06:31:54.645Z,100.58
2022-12-24T06:33:03.830Z,98.87
2022-12-24T06:34:13.018Z,99.12
2022-12-24T06:35:22.168Z,101.56
2022-12-24T06:36:30.375Z,100.34
2022-12-24T06:37:38.562Z,99.36
2022-12-24T06:38:47.732Z,101.07
2022-12-24T06:39:56.906Z,99.6
2022-12-24T06:41:06.088Z,102.05
2022-12-24T06:42:15.246Z,100.58
2022-12-24T06:43:24.413Z,98.87
2022-12-24T06:44:33.585Z,99.12
2022-12-24T06:45:42.752Z,98.14
2022-12-24T06:46:51.922Z,101.07
2022-12-24T06:48:01.108Z,101.31
2022-12-24T06:49:09.304Z,99.6
2022-12-24T06:50:17.487Z,98.14
2022-12-24T06:51:26.730Z,100.09
2022-12-24T06:52:35.843Z,97.65
2022-12-24T06:53:45.018Z,100.34
2022-12-24T06:54:54.176Z,96.92
2022-12-24T06:56:03.351Z,97.9
2022-12-24T06:57:12.518Z,98.14
2022-12-24T06:58:21.699Z,96.92
2022-12-24T06:59:30.961Z,96.43
2022-12-24T07:00:40.044Z,94.97
2022-12-24T07:01:49.215Z,95.7
2022-12-24T07:02:58.434Z,93.99
2022-12-24T07:04:07.614Z,92.28
2022-12-24T07:05:15.838Z,92.28
2022-12-24T07:06:24.924Z,94.48
2022-12-24T07:07:34.099Z,93.5
2022-12-24T07:08:43.318Z,92.77
2022-12-24T07:09:52.454Z,90.82
2022-12-24T07:11:01.622Z,92.28
2022-12-24T07:12:10.781Z,94.48
2022-12-24T07:13:19.993Z,92.52
2022-12-24T07:14:28.171Z,94.72
2022-12-24T07:15:36.336Z,94.97
2022-12-24T07:16:45.568Z,94.72
2022-12-24T07:17:54.701Z,93.99
2022-12-24T07:19:03.936Z,93.26
2022-12-24T07:20:13.034Z,93.26
2022-12-24T07:21:22.206Z,97.16
2022-12-24T07:22:30.401Z,92.77
2022-12-24T07:23:38.581Z,92.04
2022-12-24T07:24:47.760Z,92.28
2022-12-24T07:25:56.935Z,91.55
2022-12-24T07:27:06.104Z,92.28
2022-12-24T07:28:15.275Z,92.04
2022-12-24T07:29:24.526Z,95.94
2022-12-24T07:30:33.625Z,94.23
2022-12-24T07:31:42.803Z,95.45
2022-12-24T07:32:51.979Z,98.38
2022-12-24T07:34:01.142Z,99.6
2022-12-24T07:35:10.314Z,99.85
2022-12-24T07:36:19.540Z,99.36
2022-12-24T07:37:28.662Z,102.53
2022-12-24T07:38:36.866Z,104.49
2022-12-24T07:39:46.030Z,106.2
2022-12-24T07:40:55.202Z,107.42
2022-12-24T07:42:04.354Z,108.15
2022-12-24T07:43:13.539Z,107.42
2022-12-24T07:44:22.775Z,108.88
2022-12-24T07:45:31.885Z,108.64
2022-12-24T07:46:40.085Z,110.83
2022-12-24T07:47:48.308Z,112.06
2022-12-24T07:48:57.443Z,110.83
2022-12-24T07:50:05.651Z,111.32
2022-12-24T07:51:13.811Z,115.96
2022-12-24T07:52:23.066Z,113.52
2022-12-24T07:53:32.197Z,114.99
2022-12-24T07:54:41.340Z,114.25
2022-12-24T07:55:50.589Z,114.5
2022-12-24T07:56:59.677Z,117.43
2022-12-24T07:58:08.950Z,115.72
2022-12-24T07:59:18.016Z,117.43
2022-12-24T08:00:27.209Z,119.38
2022-12-24T08:01:36.360Z,117.18
2022-12-24T08:02:45.806Z,117.18
2022-12-24T08:03:54.869Z,114.5
2022-12-24T08:05:03.978Z,117.67
2022-12-24T08:06:12.159Z,111.81
2022-12-24T08:07:21.248Z,114.74
2022-12-24T08:08:30.571Z,114.99
2022-12-24T08:09:39.785Z,115.23
2022-12-24T08:10:48.777Z,117.91
2022-12-24T08:11:58.008Z,115.47
2022-12-24T08:13:07.180Z,116.21
2022-12-24T08:14:15.478Z,114.5
2022-12-24T08:15:23.571Z,115.72
2022-12-24T08:16:32.904Z,114.01
2022-12-24T08:17:40.864Z,117.18
2022-12-24T08:18:49.162Z,115.72
2022-12-24T08:19:58.303Z,115.47
2022-12-24T08:21:07.465Z,115.72
2022-12-24T08:22:16.687Z,116.94
2022-12-24T08:23:25.799Z,118.16
2022-12-24T08:24:35.044Z,117.67
2022-12-24T08:25:44.224Z,121.33
2022-12-24T08:26:53.383Z,122.8
2022-12-24T08:28:02.635Z,118.89
2022-12-24T08:29:11.709Z,119.62
2022-12-24T08:30:20.786Z,120.11
2022-12-24T08:31:30.101Z,122.31
2022-12-24T08:32:39.235Z,124.26
2022-12-24T08:33:47.352Z,119.62
2022-12-24T08:34:56.500Z,120.84
2022-12-24T08:36:05.739Z,122.55
2022-12-24T08:37:14.829Z,119.62
2022-12-24T08:38:24.069Z,116.94
2022-12-24T08:39:33.189Z,118.16
2022-12-24T08:40:42.347Z,117.18
2022-12-24T08:41:50.659Z,117.43
2022-12-24T08:42:58.744Z,120.11
2022-12-24T08:44:07.991Z,119.62
2022-12-24T08:45:17.091Z,119.87
2022-12-24T08:47:35.458Z,120.6
2022-12-24T08:48:44.783Z,119.38
2022-12-24T08:49:53.766Z,117.91
2022-12-24T08:51:02.961Z,122.31
2022-12-24T08:52:12.161Z,120.36
2022-12-24T08:53:21.369Z,119.62
2022-12-24T08:54:30.525Z,121.82
2022-12-24T08:55:39.686Z,119.14
2022-12-24T08:56:48.866Z,119.38
2022-12-24T08:57:57.061Z,119.38
2022-12-24T08:59:06.171Z,117.91
2022-12-24T09:00:15.354Z,117.67
2022-12-24T09:01:24.582Z,116.69
2022-12-24T09:02:33.690Z,118.16
2022-12-24T09:03:42.957Z,115.96
2022-12-24T09:04:52.082Z,116.69
2022-12-24T09:06:01.298Z,117.43
2022-12-24T09:07:09.458Z,118.16
2022-12-24T09:08:17.578Z,118.16
2022-12-24T09:09:26.892Z,118.65
2022-12-24T09:10:35.211Z,116.69
2022-12-24T09:11:43.192Z,114.25
2022-12-24T09:12:52.396Z,115.72
2022-12-24T09:14:01.570Z,114.01
2022-12-24T09:15:10.665Z,114.5
2022-12-24T09:16:19.902Z,116.69
2022-12-24T09:17:29.127Z,114.74
2022-12-24T09:18:38.294Z,116.69
2022-12-24T09:19:47.358Z,114.5
2022-12-24T09:20:56.803Z,114.99
2022-12-24T09:22:05.723Z,115.47
2022-12-24T09:23:14.941Z,111.57
2022-12-24T09:24:24.124Z,112.79
2022-12-24T09:25:33.209Z,112.54
2022-12-24T09:26:41.397Z,112.06
2022-12-24T09:27:50.562Z,113.52
2022-12-24T09:28:59.787Z,112.3
2022-12-24T09:30:08.911Z,110.83
2022-12-24T09:31:18.151Z,111.08
2022-12-24T09:32:27.293Z,112.3
2022-12-24T09:33:36.452Z,112.3
2022-12-24T09:34:44.641Z,108.88
2022-12-24T09:35:52.808Z,108.88
2022-12-24T09:37:01.023Z,107.42
2022-12-24T09:38:09.278Z,108.15
2022-12-24T09:39:18.378Z,107.66
2022-12-24T09:40:27.562Z,105.46
2022-12-24T09:41:36.745Z,107.17
2022-12-24T09:42:45.981Z,102.29
2022-12-24T09:43:55.069Z,103.51
2022-12-24T09:45:04.236Z,104.73
2022-12-24T09:46:13.428Z,103.02
2022-12-24T09:47:22.622Z,105.95
2022-12-24T09:48:31.781Z,103.75
2022-12-24T09:49:40.916Z,105.71
2022-12-24T09:50:50.149Z,104.73
2022-12-24T09:51:59.271Z,106.44
2022-12-24T09:53:07.459Z,109.13
2022-12-24T09:54:16.648Z,109.86
2022-12-24T09:55:25.813Z,107.42
2022-12-24T09:56:35.015Z,109.61
2022-12-24T09:57:44.184Z,108.88
2022-12-24T09:58:53.317Z,110.59
2022-12-24T10:00:02.524Z,109.61
2022-12-24T10:01:11.648Z,110.59
2022-12-24T10:02:20.870Z,108.64
2022-12-24T10:03:30.004Z,109.86
2022-12-24T10:05:48.383Z,110.35
2022-12-24T10:06:57.553Z,110.83
2022-12-24T10:08:05.786Z,110.59
2022-12-24T10:09:13.941Z,110.83
2022-12-24T10:10:23.082Z,114.5
2022-12-24T10:11:32.255Z,111.32
2022-12-24T10:12:41.488Z,110.59
2022-12-24T10:13:49.709Z,111.08
2022-12-24T10:16:06.995Z,110.59
2022-12-24T10:17:16.179Z,110.1
2022-12-24T10:18:25.355Z,109.86
2022-12-24T10:19:34.498Z,110.35
2022-12-24T10:20:43.663Z,111.32
2022-12-24T10:21:52.829Z,110.59
2022-12-24T10:23:02.056Z,111.32
2022-12-24T10:24:11.245Z,111.08
2022-12-24T10:25:20.430Z,110.35
2022-12-24T10:26:29.536Z,112.3
2022-12-24T10:27:38.724Z,111.57
2022-12-24T10:28:47.931Z,111.57
2022-12-24T10:29:56.074Z,112.54
2022-12-24T10:31:05.242Z,113.28
2022-12-24T10:32:14.392Z,112.3
2022-12-24T10:33:23.655Z,116.21
2022-12-24T10:34:32.747Z,116.69
2022-12-24T10:35:41.944Z,114.5
2022-12-24T10:36:51.104Z,117.43
2022-12-24T10:38:00.270Z,115.96
2022-12-24T10:39:08.464Z,114.5
2022-12-24T10:40:16.651Z,115.96
2022-12-24T10:41:24.865Z,116.69
2022-12-24T10:42:33.114Z,115.96
2022-12-24T10:43:42.257Z,115.23
2022-12-24T10:44:51.390Z,113.76
2022-12-24T10:46:00.561Z,115.47
2022-12-24T10:47:09.725Z,115.23
2022-12-24T10:48:18.893Z,115.72
2022-12-24T10:49:28.062Z,118.65
2022-12-24T10:51:46.438Z,111.81
2022-12-24T10:52:55.584Z,112.54
2022-12-24T10:54:04.761Z,113.76
2022-12-24T10:55:13.919Z,112.06
2022-12-24T10:56:23.157Z,111.32
2022-12-24T10:57:32.300Z,110.1
2022-12-24T10:58:40.452Z,112.79
2022-12-24T10:59:49.723Z,111.57
2022-12-24T11:00:58.858Z,111.81
2022-12-24T11:02:07.967Z,109.86
2022-12-24T11:03:17.220Z,109.13
2022-12-24T11:04:26.309Z,116.45
2022-12-24T11:05:35.485Z,111.32
2022-12-24T11:06:44.771Z,110.59
2022-12-24T11:07:53.951Z,110.35
2022-12-24T11:09:03.125Z,108.88
2022-12-24T11:10:12.189Z,110.59
2022-12-24T11:11:21.342Z,109.61
2022-12-24T11:12:30.563Z,110.59
2022-12-24T11:13:38.722Z,109.61
2022-12-24T11:14:48.008Z,110.59
2022-12-24T11:15:57.065Z,110.83
2022-12-24T11:17:06.254Z,113.52
2022-12-24T11:18:15.473Z,111.81
2022-12-24T11:19:24.626Z,110.59
2022-12-24T11:20:33.746Z,111.32
2022-12-24T11:21:42.913Z,109.86
2022-12-24T11:22:52.133Z,111.57
2022-12-24T11:24:01.337Z,108.88
2022-12-24T11:25:10.450Z,111.32
2022-12-24T11:26:19.667Z,110.83
2022-12-24T11:27:28.768Z,110.35
2022-12-24T11:28:37.086Z,111.57
2022-12-24T11:29:45.151Z,109.86
2022-12-24T11:30:54.404Z,109.86
2022-12-24T11:32:03.624Z,110.35
2022-12-24T11:33:12.677Z,114.74
2022-12-24T11:34:21.854Z,116.69
2022-12-24T11:35:31.021Z,109.61
2022-12-24T11:36:40.206Z,110.83
2022-12-24T11:37:49.364Z,108.39
2022-12-24T11:38:58.539Z,109.13
2022-12-24T11:40:07.719Z,109.86
2022-12-24T11:42:26.124Z,109.86
2022-12-24T11:43:35.215Z,111.08
2022-12-24T11:44:43.410Z,110.35
2022-12-24T11:45:52.678Z,109.37
2022-12-24T11:47:01.778Z,109.86
2022-12-24T11:48:10.940Z,111.32
2022-12-24T11:49:20.091Z,109.61
2022-12-24T11:50:29.270Z,108.64
2022-12-24T11:51:38.439Z,110.35
2022-12-24T11:52:47.618Z,110.59
2022-12-24T11:53:55.815Z,111.08
2022-12-24T11:55:03.997Z,108.15
2022-12-24T11:56:13.237Z,107.42
2022-12-24T11:57:22.341Z,107.42
2022-12-24T11:58:30.533Z,107.66
2022-12-24T11:59:38.720Z,105.46
2022-12-24T12:00:47.886Z,109.86
2022-12-24T12:01:56.090Z,106.68
2022-12-24T12:03:05.263Z,107.17
2022-12-24T12:04:13.512Z,105.22
2022-12-24T12:05:22.631Z,106.68
2022-12-24T12:06:31.841Z,105.71
2022-12-24T12:07:40.974Z,104
2022-12-24T12:09:59.313Z,104.98
2022-12-24T12:11:08.527Z,104.49
2022-12-24T12:12:17.670Z,105.22
2022-12-24T12:13:26.892Z,106.44
2022-12-24T12:14:36.000Z,103.75
2022-12-24T12:15:45.168Z,107.17
2022-12-24T12:16:54.337Z,106.44
2022-12-24T12:18:03.630Z,106.44
2022-12-24T12:19:11.750Z,107.42
2022-12-24T12:20:20.940Z,104.98
2022-12-24T12:21:30.094Z,106.93
2022-12-24T12:22:39.289Z,106.93
2022-12-24T12:23:48.397Z,105.71
2022-12-24T12:24:57.591Z,107.42
2022-12-24T12:26:06.731Z,107.17
2022-12-24T12:27:15.904Z,107.17
2022-12-24T12:28:25.108Z,107.91
2022-12-24T12:30:43.482Z,109.13
2022-12-24T12:31:52.758Z,107.17
2022-12-24T12:33:01.768Z,107.66
2022-12-24T12:34:10.116Z,109.61
2022-12-24T12:35:19.145Z,109.86
2022-12-24T12:36:28.313Z,108.88
2022-12-24T12:37:37.548Z,107.42
2022-12-24T12:38:46.659Z,106.93
2022-12-24T12:39:55.827Z,106.68
2022-12-24T12:41:05.074Z,108.15
2022-12-24T12:42:14.196Z,104.98
2022-12-24T12:43:23.334Z,106.68
2022-12-24T12:44:32.521Z,106.44
2022-12-24T12:45:41.689Z,105.71
2022-12-24T12:46:50.901Z,105.71
2022-12-24T12:48:00.036Z,106.93
2022-12-24T12:49:08.308Z,106.2
2022-12-24T12:50:16.440Z,107.42
2022-12-24T12:51:25.616Z,108.39
2022-12-24T12:52:34.752Z,106.44
2022-12-24T12:53:43.988Z,105.95
2022-12-24T12:54:53.118Z,107.17
2022-12-24T12:56:02.415Z,107.91
2022-12-24T12:57:11.542Z,106.68
2022-12-24T12:58:20.735Z,106.68
2022-12-24T12:59:29.782Z,106.44
2022-12-24T13:00:38.967Z,106.68
2022-12-24T13:01:48.158Z,107.66
2022-12-24T13:02:57.297Z,104.98
2022-12-24T13:04:06.487Z,106.44
2022-12-24T13:05:15.670Z,105.95
2022-12-24T13:06:23.836Z,105.95
2022-12-24T13:07:33.021Z,105.22
2022-12-24T13:08:42.175Z,107.42
2022-12-24T13:09:51.368Z,107.17
2022-12-24T13:11:00.536Z,105.95
2022-12-24T13:12:09.772Z,105.71
2022-12-24T13:13:17.889Z,104.49
2022-12-24T13:14:26.079Z,104.49
2022-12-24T13:15:34.285Z,108.39
2022-12-24T13:16:42.487Z,105.95
2022-12-24T13:17:51.700Z,105.71
2022-12-24T13:20:09.985Z,104.73
2022-12-24T13:21:18.191Z,106.68
2022-12-24T13:22:26.368Z,106.68
2022-12-24T13:23:35.531Z,106.44
2022-12-24T13:24:44.711Z,106.93
2022-12-24T13:25:54.052Z,107.42
2022-12-24T13:27:03.095Z,107.17
2022-12-24T13:28:12.276Z,105.71
2022-12-24T13:29:21.482Z,106.44
2022-12-24T13:30:30.575Z,107.17
2022-12-24T13:31:39.835Z,107.42
2022-12-24T13:32:48.912Z,107.42
2022-12-24T13:33:58.084Z,105.22
2022-12-24T13:35:07.250Z,107.17
2022-12-24T13:36:16.526Z,105.71
2022-12-24T13:37:24.689Z,107.42
2022-12-24T13:38:33.790Z,106.68
2022-12-24T13:39:42.966Z,105.95
2022-12-24T13:40:52.151Z,105.46
2022-12-24T13:42:01.418Z,107.17
2022-12-24T13:43:10.504Z,106.2
2022-12-24T13:44:19.654Z,106.93
2022-12-24T13:45:27.937Z,105.46
2022-12-24T13:46:37.029Z,106.68
2022-12-24T13:47:45.267Z,105.22
2022-12-24T13:48:54.428Z,107.17
2022-12-24T13:50:03.586Z,105.95
2022-12-24T13:51:11.759Z,106.2
2022-12-24T13:52:19.927Z,106.68
2022-12-24T13:53:29.100Z,107.17
2022-12-24T13:54:38.302Z,108.39
2022-12-24T13:55:47.500Z,107.42
2022-12-24T13:58:05.809Z,105.71
2022-12-24T13:59:13.986Z,107.17
2022-12-24T14:00:23.199Z,106.44
2022-12-24T14:01:32.331Z,105.95
2022-12-24T14:02:41.504Z,106.44
2022-12-24T14:03:50.731Z,106.68
2022-12-24T14:04:59.853Z,106.44
2022-12-24T14:06:09.091Z,106.44
2022-12-24T14:07:18.184Z,107.17
2022-12-24T14:08:27.424Z,108.64
2022-12-24T14:09:36.541Z,107.17
2022-12-24T14:10:45.871Z,106.2
2022-12-24T14:11:54.884Z,105.22
2022-12-24T14:13:04.221Z,105.95
2022-12-24T14:14:12.275Z,106.93
2022-12-24T14:15:21.504Z,105.46
2022-12-24T14:16:29.796Z,104.98
2022-12-24T14:17:37.887Z,106.44
2022-12-24T14:18:47.019Z,106.93
2022-12-24T14:19:55.326Z,107.17
2022-12-24T14:21:03.349Z,105.71
2022-12-24T14:22:12.671Z,105.46
2022-12-24T14:23:21.785Z,105.22
2022-12-24T14:24:30.987Z,106.2
2022-12-24T14:25:40.139Z,106.68
2022-12-24T14:26:49.229Z,108.39
2022-12-24T14:27:58.380Z,108.15
2022-12-24T14:29:07.559Z,106.68
2022-12-24T14:30:16.853Z,107.66
2022-12-24T14:31:25.993Z,108.88
2022-12-24T14:32:35.211Z,109.61
2022-12-24T14:33:44.362Z,109.61
2022-12-24T14:34:53.500Z,109.86
2022-12-24T14:36:01.728Z,109.86
2022-12-24T14:37:10.820Z,109.86
2022-12-24T14:38:20.059Z,108.64
2022-12-24T14:39:29.157Z,109.86
2022-12-24T14:40:38.347Z,109.37
2022-12-24T14:41:47.472Z,111.57
2022-12-24T14:42:56.704Z,110.1
2022-12-24T14:45:14.982Z,109.61
2022-12-24T14:46:24.177Z,109.13
2022-12-24T14:47:33.344Z,111.57
2022-12-24T14:48:42.512Z,108.88
2022-12-24T14:49:51.733Z,109.13
2022-12-24T14:50:59.874Z,107.91
2022-12-24T14:53:18.305Z,105.71
2022-12-24T14:54:27.396Z,106.2
2022-12-24T14:55:36.573Z,105.71